Time;durP1;ratioP1;P1;durP2;ratioP2;P2;SDS_P1;SDS_P2;PMS_P1;PMS_P2;Temp;Humidity;BMP_temperature;BMP_pressure;BME280_temperature;BME280_humidity;BME280_pressure;Samples;Min_cycle;Max_cycle;Signal;HPM_P1;HPM_P2
2021/12/08 00:00:24;;;;;;;2.88;0.47;;;6.10;99.90;;;;;;5158779;27;20046;-87
2021/12/08 00:02:51;;;;;;;1.95;0.60;;;6.00;99.90;;;;;;5159583;27;20047;-85
2021/12/08 00:05:22;;;;;;;1.08;0.52;;;6.00;99.90;;;;;;5158189;27;20047;-87
2021/12/08 00:07:49;;;;;;;3.22;0.70;;;6.00;99.90;;;;;;5153235;27;20428;-87
2021/12/08 00:10:40;;;;;;;3.75;0.60;;;6.00;99.90;;;;;;5154277;27;20050;-87
2021/12/08 00:13:07;;;;;;;2.83;0.52;;;6.00;99.90;;;;;;5156852;27;20216;-87
2021/12/08 00:15:36;;;;;;;2.83;0.60;;;5.80;99.90;;;;;;5158910;27;20078;-87
2021/12/08 00:18:04;;;;;;;2.20;0.52;;;5.90;99.90;;;;;;5158621;27;20046;-87
2021/12/08 00:20:34;;;;;;;3.20;0.75;;;6.00;99.90;;;;;;5150385;27;20051;-88
2021/12/08 00:23:02;;;;;;;2.45;0.70;;;6.10;99.90;;;;;;5139124;27;20046;-87
2021/12/08 00:25:29;;;;;;;2.55;0.77;;;6.00;99.90;;;;;;5137656;27;20047;-88
2021/12/08 00:27:57;;;;;;;6.45;0.60;;;6.00;99.90;;;;;;5138081;27;20039;-87
2021/12/08 00:30:26;;;;;;;3.33;0.70;;;6.20;99.90;;;;;;5137684;27;20455;-88
2021/12/08 00:32:55;;;;;;;2.45;0.47;;;6.10;99.90;;;;;;5137471;27;20410;-87
2021/12/08 00:35:22;;;;;;;3.13;0.55;;;6.10;99.90;;;;;;5137331;27;20051;-87
2021/12/08 00:37:51;;;;;;;5.07;0.77;;;5.90;99.90;;;;;;5137220;27;20567;-87
2021/12/08 00:40:20;;;;;;;5.07;0.55;;;5.80;99.90;;;;;;5137272;27;20051;-87
2021/12/08 00:42:48;;;;;;;13.73;1.83;;;5.80;99.90;;;;;;5139493;27;20111;-88
2021/12/08 00:45:17;;;;;;;6.33;1.17;;;5.90;99.90;;;;;;5158259;27;20047;-88
2021/12/08 00:47:45;;;;;;;;;;;6.00;99.90;;;;;;5158204;27;20043;-89
2021/12/08 00:50:13;;;;;;;5.38;0.75;;;6.10;99.90;;;;;;5158281;27;19918;-88
2021/12/08 00:52:40;;;;;;;5.15;1.20;;;6.00;99.90;;;;;;5156252;27;20449;-88
2021/12/08 00:55:12;;;;;;;6.90;1.25;;;6.00;99.90;;;;;;5137116;27;20064;-87
2021/12/08 00:57:39;;;;;;;4.00;1.38;;;6.00;99.90;;;;;;5137271;27;20078;-88
2021/12/08 01:00:11;;;;;;;6.18;0.90;;;6.00;99.90;;;;;;5156342;27;20047;-89
2021/12/08 01:02:39;;;;;;;11.05;1.30;;;6.00;99.90;;;;;;5157079;27;20103;-87
2021/12/08 01:05:07;;;;;;;11.77;1.50;;;6.00;99.90;;;;;;5157375;27;20506;-87
2021/12/08 01:07:34;;;;;;;12.98;1.67;;;6.10;99.90;;;;;;5157397;27;20068;-87
2021/12/08 01:10:01;;;;;;;8.25;1.27;;;6.10;99.90;;;;;;5157617;27;20050;-87
2021/12/08 01:12:30;;;;;;;6.75;1.38;;;6.10;99.90;;;;;;5157990;27;20046;-88
2021/12/08 01:14:57;;;;;;;9.00;2.20;;;6.00;99.90;;;;;;5136743;27;20097;-88
2021/12/08 01:17:24;;;;;;;9.73;1.48;;;5.90;99.90;;;;;;5136605;27;20477;-87
2021/12/08 01:19:51;;;;;;;6.82;1.63;;;5.90;99.90;;;;;;5136628;27;20043;-87
2021/12/08 01:22:18;;;;;;;7.80;1.45;;;5.90;99.90;;;;;;5135851;27;20554;-88
2021/12/08 01:24:45;;;;;;;5.40;1.00;;;5.90;99.90;;;;;;5136722;27;20051;-88
2021/12/08 01:27:12;;;;;;;5.45;1.00;;;5.90;99.90;;;;;;5143127;27;20487;-88
2021/12/08 01:29:41;;;;;;;12.02;2.92;;;5.90;99.90;;;;;;5157232;27;20047;-88
2021/12/08 01:32:08;;;;;;;5.53;1.07;;;5.90;99.90;;;;;;5157027;27;20122;-88
2021/12/08 01:34:36;;;;;;;9.35;1.88;;;5.90;99.90;;;;;;5156567;27;20306;-87
2021/12/08 01:37:03;;;;;;;4.95;0.77;;;5.80;99.90;;;;;;5157115;27;20108;-87
2021/12/08 01:39:30;;;;;;;5.88;1.52;;;5.90;99.90;;;;;;5156843;27;20054;-88
2021/12/08 01:41:57;;;;;;;6.43;1.20;;;5.90;99.90;;;;;;5157145;27;20042;-87
2021/12/08 01:47:10;;;;;;;5.47;1.05;;;5.80;99.90;;;;;;5156227;27;20062;-87
2021/12/08 01:49:37;;;;;;;7.13;1.33;;;5.80;99.90;;;;;;5153744;27;20047;-88
2021/12/08 01:52:04;;;;;;;4.95;0.93;;;5.90;99.90;;;;;;5135981;27;20092;-87
2021/12/08 01:54:32;;;;;;;7.72;1.85;;;5.90;99.90;;;;;;5142014;27;20055;-87
2021/12/08 01:57:00;;;;;;;5.00;0.90;;;5.80;99.90;;;;;;5156036;27;20604;-87
2021/12/08 01:59:27;;;;;;;5.50;1.20;;;5.80;99.90;;;;;;5150934;27;20043;-87
2021/12/08 02:01:54;;;;;;;8.18;1.00;;;5.80;99.90;;;;;;5151732;27;20076;-86
2021/12/08 02:04:22;;;;;;;7.35;0.93;;;5.80;99.90;;;;;;5152148;27;20051;-86
2021/12/08 02:06:49;;;;;;;3.33;0.30;;;5.70;99.90;;;;;;5161571;27;20051;-87
2021/12/08 02:09:18;;;;;;;6.28;1.00;;;5.70;99.90;;;;;;5155781;27;20102;-87
2021/12/08 02:11:47;;;;;;;9.20;1.05;;;5.70;99.90;;;;;;5156402;27;20043;-86
2021/12/08 02:14:15;;;;;;;6.03;1.00;;;5.60;99.90;;;;;;5156090;27;20408;-87
2021/12/08 02:16:42;;;;;;;5.00;2.05;;;5.60;99.90;;;;;;5151077;27;20092;-86
2021/12/08 02:19:09;;;;;;;4.57;0.65;;;5.50;99.90;;;;;;5135108;27;20416;-87
2021/12/08 02:21:41;;;;;;;3.38;0.65;;;5.40;99.90;;;;;;5116216;27;20043;-87
2021/12/08 02:24:10;;;;;;;3.13;0.43;;;5.50;99.90;;;;;;5134639;27;20050;-86
2021/12/08 02:26:38;;;;;;;;;;;5.40;99.90;;;;;;5137902;27;20115;-87
2021/12/08 02:29:18;;;;;;;7.65;0.52;;;5.40;99.90;;;;;;5156032;27;19919;-87
2021/12/08 02:31:52;;;;;;;3.65;0.50;;;5.40;99.90;;;;;;5156271;27;20456;-87
2021/12/08 02:48:04;;;;;;;3.45;0.50;;;5.30;99.90;;;;;;5155788;27;20080;-87
2021/12/08 02:50:35;;;;;;;2.60;0.75;;;5.30;99.90;;;;;;5154715;27;20043;-88
2021/12/08 02:53:05;;;;;;;2.10;0.28;;;5.30;99.90;;;;;;5155462;27;20124;-87
2021/12/08 02:55:33;;;;;;;0.90;0.30;;;5.30;99.90;;;;;;5155746;27;20046;-88
2021/12/08 02:58:01;;;;;;;0.35;0.10;;;5.20;99.90;;;;;;5155342;27;20046;-88
2021/12/08 03:00:31;;;;;;;0.40;0.10;;;5.20;99.90;;;;;;5155072;27;20442;-89
2021/12/08 03:03:00;;;;;;;3.22;0.30;;;5.20;99.90;;;;;;5155702;27;20764;-88
2021/12/08 03:05:28;;;;;;;0.60;0.30;;;5.10;99.90;;;;;;5155740;27;20054;-88
2021/12/08 03:07:55;;;;;;;0.50;0.20;;;5.10;99.90;;;;;;5155601;27;20119;-88
2021/12/08 03:10:28;;;;;;;0.45;0.20;;;5.10;99.90;;;;;;5155674;27;20103;-88
2021/12/08 03:12:55;;;;;;;4.43;0.40;;;5.10;99.90;;;;;;5155705;27;20123;-87
2021/12/08 03:15:23;;;;;;;1.40;0.30;;;5.00;99.90;;;;;;5155234;27;20111;-87
2021/12/08 03:17:50;;;;;;;1.52;0.30;;;5.00;99.90;;;;;;5135252;27;20080;-88
2021/12/08 03:20:26;;;;;;;2.90;0.35;;;5.00;99.90;;;;;;5134870;28;20063;-87
2021/12/08 03:23:00;;;;;;;2.83;0.30;;;5.00;99.90;;;;;;5134859;28;20082;-87
2021/12/08 03:25:34;;;;;;;1.38;0.30;;;4.90;99.90;;;;;;5135076;28;20050;-89
2021/12/08 03:28:08;;;;;;;4.25;1.10;;;5.20;99.90;;;;;;5134733;28;20047;-87
2021/12/08 03:30:40;;;;;;;3.72;0.90;;;4.90;99.90;;;;;;5134673;28;20484;-87
2021/12/08 03:33:08;;;;;;;2.72;0.47;;;5.10;99.90;;;;;;5134967;28;20048;-87
2021/12/08 03:35:36;;;;;;;5.28;0.25;;;5.10;99.90;;;;;;5134760;27;20502;-88
2021/12/08 03:38:03;;;;;;;1.35;0.30;;;5.20;99.90;;;;;;5134873;27;20039;-88
2021/12/08 03:40:32;;;;;;;9.68;0.77;;;5.30;99.90;;;;;;5138467;27;20047;-88
2021/12/08 03:43:00;;;;;;;4.47;0.63;;;5.30;99.90;;;;;;5154907;27;20053;-87
2021/12/08 03:45:32;;;;;;;7.45;0.70;;;5.30;99.90;;;;;;5130283;27;20057;-88
2021/12/08 03:48:03;;;;;;;3.78;0.70;;;5.40;99.90;;;;;;5159415;27;20091;-88
2021/12/08 03:50:33;;;;;;;4.65;0.65;;;5.40;99.90;;;;;;5158326;27;20043;-88
2021/12/08 03:53:00;;;;;;;5.50;1.15;;;5.30;99.90;;;;;;5159246;27;20106;-87
2021/12/08 03:55:27;;;;;;;3.50;1.05;;;5.40;99.90;;;;;;5157092;27;20062;-88
2021/12/08 03:57:56;;;;;;;5.85;0.85;;;5.40;99.90;;;;;;5158596;27;20048;-88
2021/12/08 04:00:25;;;;;;;3.90;1.10;;;5.50;99.90;;;;;;5149231;27;20039;-87
2021/12/08 04:02:53;;;;;;;4.05;1.02;;;5.50;99.90;;;;;;5139916;27;20043;-87
2021/12/08 04:05:31;;;;;;;3.75;0.90;;;5.50;99.90;;;;;;5143240;27;20089;-86
2021/12/08 04:08:03;;;;;;;6.25;1.02;;;5.40;99.90;;;;;;5142840;27;20047;-86
2021/12/08 04:10:30;;;;;;;4.25;1.20;;;5.40;99.90;;;;;;5143513;27;20042;-88
2021/12/08 04:12:59;;;;;;;4.03;0.60;;;5.50;99.90;;;;;;5137887;27;20542;-87
2021/12/08 04:15:28;;;;;;;5.22;0.85;;;5.60;99.90;;;;;;5148690;27;20058;-88
2021/12/08 04:17:56;;;;;;;6.82;1.10;;;5.70;99.90;;;;;;5157993;27;20169;-87
2021/12/08 04:20:30;;;;;;;8.15;1.05;;;5.80;99.90;;;;;;5158621;27;20042;-88
2021/12/08 04:22:59;;;;;;;6.18;1.00;;;5.80;99.90;;;;;;5158598;27;20043;-88
2021/12/08 04:25:28;;;;;;;;;;;5.80;99.90;;;;;;5158629;27;20104;-87
2021/12/08 04:27:59;;;;;;;9.07;1.57;;;5.80;99.90;;;;;;5156261;27;19919;-87
2021/12/08 04:30:31;;;;;;;3.88;0.90;;;5.80;99.90;;;;;;5119595;27;20359;-87
2021/12/08 04:32:59;;;;;;;3.80;1.13;;;5.90;99.90;;;;;;5137110;27;20397;-89
2021/12/08 04:35:28;;;;;;;6.35;1.83;;;5.80;99.90;;;;;;5136697;27;20047;-87
2021/12/08 04:38:00;;;;;;;6.38;1.25;;;5.90;99.90;;;;;;5137036;27;20074;-88
2021/12/08 04:40:36;;;;;;;3.80;0.57;;;5.90;99.90;;;;;;5141614;27;20484;-87
2021/12/08 04:43:14;;;;;;;4.53;0.70;;;5.90;99.90;;;;;;5157589;27;20130;-88
2021/12/08 04:45:53;;;;;;;3.55;1.02;;;6.00;99.90;;;;;;5158096;27;20047;-88
2021/12/08 04:48:35;;;;;;;4.40;0.60;;;6.00;99.90;;;;;;5157791;27;20067;-88
2021/12/08 04:51:21;;;;;;;10.15;1.00;;;5.90;99.90;;;;;;5157801;27;20043;-88
2021/12/08 05:00:12;;;;;;;5.13;0.85;;;5.90;99.90;;;;;;5156632;27;20430;-88
2021/12/08 05:02:33;;;;;;;2.97;0.60;;;5.90;99.90;;;;;;5153195;27;20519;-86
2021/12/08 05:05:13;;;;;;;6.38;1.02;;;6.00;99.90;;;;;;5136080;27;20043;-88
2021/12/08 05:07:51;;;;;;;3.72;0.80;;;5.90;99.90;;;;;;5135844;27;20100;-88
2021/12/08 05:10:23;;;;;;;6.95;0.88;;;5.80;99.90;;;;;;5136451;27;20074;-88
2021/12/08 05:12:53;;;;;;;9.57;1.95;;;5.80;99.90;;;;;;5143561;27;20043;-88
2021/12/08 05:15:25;;;;;;;8.60;1.30;;;5.80;99.90;;;;;;5157164;27;20051;-87
2021/12/08 05:17:55;;;;;;;6.10;0.95;;;5.80;99.90;;;;;;5157258;27;20091;-89
2021/12/08 05:20:29;;;;;;;5.25;0.90;;;5.70;99.90;;;;;;5156800;27;20089;-87
2021/12/08 05:23:00;;;;;;;6.07;1.45;;;5.70;99.90;;;;;;5150382;27;20116;-86
2021/12/08 05:25:31;;;;;;;8.52;1.80;;;5.70;99.90;;;;;;5136547;27;20119;-88
2021/12/08 05:28:02;;;;;;;4.28;0.82;;;5.60;99.90;;;;;;5136153;27;20104;-88
2021/12/08 05:30:33;;;;;;;4.10;0.70;;;5.60;99.90;;;;;;5134529;27;20047;-88
2021/12/08 05:33:02;;;;;;;5.75;0.68;;;5.70;99.90;;;;;;5141813;27;20071;-87
2021/12/08 05:35:30;;;;;;;4.10;0.73;;;5.60;99.90;;;;;;5155537;27;20221;-87
2021/12/08 05:37:57;;;;;;;1.45;0.40;;;5.60;99.90;;;;;;5155846;27;20043;-88
2021/12/08 05:40:28;;;;;;;2.78;0.55;;;5.50;99.90;;;;;;5156332;27;20038;-88
2021/12/08 05:42:55;;;;;;;3.83;0.82;;;5.50;99.90;;;;;;5136565;27;20043;-86
2021/12/08 05:45:23;;;;;;;1.08;0.22;;;5.40;99.90;;;;;;5135795;27;20043;-88
2021/12/08 05:47:53;;;;;;;6.68;0.28;;;5.40;99.90;;;;;;5144432;27;20042;-87
2021/12/08 05:50:26;;;;;;;1.85;0.30;;;5.50;99.90;;;;;;5156406;27;20078;-88
2021/12/08 05:52:54;;;;;;;2.20;0.40;;;5.40;99.90;;;;;;5156324;27;20050;-88
2021/12/08 05:55:22;;;;;;;3.28;0.50;;;5.40;99.90;;;;;;5156105;27;20046;-87
2021/12/08 05:57:49;;;;;;;3.13;0.60;;;5.40;99.90;;;;;;5155276;27;20068;-87
2021/12/08 06:00:22;;;;;;;1.98;0.50;;;5.30;99.90;;;;;;5155720;27;20064;-88
2021/12/08 06:02:50;;;;;;;6.78;0.68;;;5.30;99.90;;;;;;5133955;27;20465;-87
2021/12/08 06:05:19;;;;;;;2.45;0.45;;;5.30;99.90;;;;;;5135229;27;20104;-88
2021/12/08 06:07:46;;;;;;;2.75;0.60;;;5.30;99.90;;;;;;5150633;27;20477;-86
2021/12/08 06:10:18;;;;;;;6.93;0.80;;;5.30;99.90;;;;;;5154033;27;20039;-87
2021/12/08 06:12:45;;;;;;;4.55;1.08;;;5.20;99.90;;;;;;5160280;27;20098;-87
2021/12/08 06:15:13;;;;;;;3.08;0.68;;;5.20;99.90;;;;;;5158763;27;20105;-88
2021/12/08 06:17:41;;;;;;;4.32;0.38;;;5.20;99.90;;;;;;5150980;27;20042;-88
2021/12/08 06:20:12;;;;;;;3.17;0.55;;;5.30;99.90;;;;;;5145356;27;20047;-87
2021/12/08 06:22:41;;;;;;;8.18;1.00;;;5.40;99.90;;;;;;5116700;27;20047;-87
2021/12/08 06:25:12;;;;;;;3.65;0.57;;;5.30;99.90;;;;;;5134938;27;20142;-87
2021/12/08 06:27:40;;;;;;;1.65;0.52;;;5.30;99.90;;;;;;5135256;27;20446;-87
2021/12/08 06:30:09;;;;;;;5.32;0.40;;;5.30;99.90;;;;;;5134231;27;20187;-86
2021/12/08 06:32:36;;;;;;;3.15;0.45;;;5.20;99.90;;;;;;5175795;27;20102;-87
2021/12/08 06:35:08;;;;;;;5.82;1.35;;;5.30;99.90;;;;;;5176115;27;20089;-87
2021/12/08 06:37:41;;;;;;;4.88;0.60;;;5.30;99.90;;;;;;5173216;27;20042;-88
2021/12/08 06:40:14;;;;;;;3.83;0.68;;;5.20;99.90;;;;;;5135056;27;20070;-87
2021/12/08 06:42:43;;;;;;;2.67;0.52;;;5.20;99.90;;;;;;5134938;27;20489;-88
2021/12/08 06:45:15;;;;;;;4.18;0.60;;;5.20;99.90;;;;;;5134440;27;20069;-88
2021/12/08 06:47:44;;;;;;;2.83;0.55;;;5.20;99.90;;;;;;5134721;27;20096;-87
2021/12/08 06:50:15;;;;;;;1.37;0.30;;;5.10;99.90;;;;;;5150222;27;20070;-87
2021/12/08 06:52:44;;;;;;;1.23;0.35;;;5.20;99.90;;;;;;5155266;27;20294;-88
2021/12/08 06:55:15;;;;;;;1.67;0.40;;;5.10;99.90;;;;;;5155507;27;20046;-86
2021/12/08 06:57:46;;;;;;;1.85;0.40;;;4.90;99.90;;;;;;5155934;27;20047;-88
2021/12/08 07:00:22;;;;;;;1.60;0.60;;;5.00;99.90;;;;;;5155935;27;20039;-87
2021/12/08 07:03:17;;;;;;;3.05;0.70;;;4.90;99.90;;;;;;5144911;27;20047;-87
2021/12/08 07:06:05;;;;;;;2.60;0.50;;;4.90;99.90;;;;;;5134706;28;20043;-87
2021/12/08 07:08:35;;;;;;;2.13;0.70;;;4.90;99.90;;;;;;5135547;28;20050;-88
2021/12/08 07:11:03;;;;;;;4.38;0.40;;;4.90;99.90;;;;;;5135107;28;20100;-88
2021/12/08 07:13:33;;;;;;;3.38;1.00;;;5.00;99.90;;;;;;5149781;27;20104;-87
2021/12/08 07:16:03;;;;;;;3.03;0.88;;;5.00;99.90;;;;;;5155715;27;20070;-88
2021/12/08 07:18:39;;;;;;;3.85;0.70;;;5.00;99.90;;;;;;5155877;27;20520;-87
2021/12/08 07:21:09;;;;;;;2.05;1.20;;;5.00;99.90;;;;;;5157018;27;20476;-88
2021/12/08 07:23:43;;;;;;;8.27;1.15;;;5.00;99.90;;;;;;5159752;27;20560;-87
2021/12/08 07:26:14;;;;;;;3.03;1.20;;;5.00;99.90;;;;;;5159535;27;20045;-87
2021/12/08 07:28:42;;;;;;;4.18;1.35;;;5.00;99.90;;;;;;5162501;27;20043;-87
2021/12/08 07:31:15;;;;;;;1.55;0.70;;;5.00;99.90;;;;;;5156744;27;20091;-86
2021/12/08 07:33:45;;;;;;;4.65;1.40;;;5.00;99.90;;;;;;5140872;27;20054;-89
2021/12/08 07:36:17;;;;;;;8.25;1.52;;;5.60;99.90;;;;;;5144913;27;20046;-85
2021/12/08 07:38:50;;;;;;;13.27;1.92;;;5.10;99.90;;;;;;5122395;27;20065;-84
2021/12/08 07:41:21;;;;;;;7.43;1.40;;;5.20;99.90;;;;;;5138684;27;20106;-86
2021/12/08 07:43:52;;;;;;;11.10;1.55;;;5.20;99.90;;;;;;5144587;27;20377;-87
2021/12/08 07:46:22;;;;;;;13.82;3.53;;;5.20;99.90;;;;;;5143314;27;20035;-87
2021/12/08 07:48:54;;;;;;;3.78;1.25;;;5.20;99.90;;;;;;5139878;27;20553;-86
2021/12/08 07:51:28;;;;;;;9.52;2.80;;;5.20;99.90;;;;;;5117794;27;20074;-86
2021/12/08 07:53:58;;;;;;;11.45;1.20;;;5.30;99.90;;;;;;5142364;27;20038;-85
2021/12/08 07:56:28;;;;;;;14.15;1.83;;;5.30;99.90;;;;;;5141770;27;20047;-86
2021/12/08 07:59:00;;;;;;;6.90;1.67;;;5.40;99.90;;;;;;5144364;27;20118;-86
2021/12/08 08:01:30;;;;;;;7.45;1.75;;;5.50;99.90;;;;;;5150903;27;20080;-88
2021/12/08 08:03:58;;;;;;;15.35;1.70;;;5.60;99.90;;;;;;5153067;27;20130;-88
2021/12/08 08:06:28;;;;;;;11.75;3.47;;;5.60;99.90;;;;;;5142256;27;20099;-87
2021/12/08 08:08:57;;;;;;;8.48;1.52;;;5.70;99.90;;;;;;5144626;27;20457;-87
2021/12/08 08:11:27;;;;;;;15.77;2.65;;;5.70;99.90;;;;;;5150380;27;20042;-85
2021/12/08 08:13:55;;;;;;;5.45;1.52;;;5.80;99.90;;;;;;5140737;27;20047;-86
2021/12/08 08:16:27;;;;;;;6.22;1.50;;;5.70;99.90;;;;;;5141078;27;20131;-87
2021/12/08 08:19:05;;;;;;;8.38;1.58;;;5.50;99.90;;;;;;5152772;27;20039;-86
2021/12/08 08:21:37;;;;;;;2.70;0.77;;;5.30;99.90;;;;;;5150769;27;20404;-88
2021/12/08 08:24:08;;;;;;;9.00;1.90;;;5.00;99.90;;;;;;5139341;27;20039;-86
2021/12/08 08:26:36;;;;;;;5.82;0.80;;;4.90;99.90;;;;;;5141732;27;20051;-86
2021/12/08 08:29:04;;;;;;;9.48;1.17;;;4.80;99.90;;;;;;5126316;27;20035;-88
2021/12/08 08:31:35;;;;;;;6.00;1.30;;;4.90;99.90;;;;;;5143010;27;20047;-88
2021/12/08 08:34:03;;;;;;;5.45;1.63;;;4.90;99.90;;;;;;5144953;27;20058;-88
2021/12/08 08:36:33;;;;;;;7.40;1.05;;;4.90;99.90;;;;;;5164316;27;20483;-88
2021/12/08 08:39:07;;;;;;;10.98;1.92;;;5.10;99.90;;;;;;5167842;27;20047;-87
2021/12/08 08:41:40;;;;;;;15.88;4.80;;;5.10;99.90;;;;;;5144184;27;20051;-86
2021/12/08 08:44:19;;;;;;;15.68;3.28;;;5.50;99.90;;;;;;5140072;27;20046;-89
2021/12/08 08:46:50;;;;;;;17.58;2.45;;;5.90;99.90;;;;;;5139210;27;20810;-85
2021/12/08 08:49:26;;;;;;;17.25;2.13;;;6.10;99.90;;;;;;5149049;27;20039;-86
2021/12/08 08:52:01;;;;;;;21.45;3.05;;;6.20;99.90;;;;;;5152590;27;20053;-86
2021/12/08 08:54:32;;;;;;;31.15;4.00;;;6.30;99.90;;;;;;5135282;27;20047;-87
2021/12/08 08:57:06;;;;;;;20.30;3.15;;;6.40;99.90;;;;;;5139257;27;20134;-87
2021/12/08 08:59:40;;;;;;;19.95;3.45;;;6.40;99.90;;;;;;5147470;27;20554;-86
2021/12/08 09:02:09;;;;;;;29.55;4.13;;;6.40;99.90;;;;;;5158319;27;20049;-85
2021/12/08 09:04:42;;;;;;;33.00;5.15;;;6.50;99.90;;;;;;5130575;27;20043;-86
2021/12/08 09:07:14;;;;;;;21.02;3.53;;;6.50;99.90;;;;;;5140276;27;20047;-86
2021/12/08 09:09:46;;;;;;;20.15;4.32;;;6.50;99.90;;;;;;5136772;27;20070;-86
2021/12/08 09:12:19;;;;;;;21.27;3.40;;;6.60;99.90;;;;;;5134870;27;20073;-86
2021/12/08 09:14:53;;;;;;;20.58;3.47;;;6.60;99.90;;;;;;5121849;27;20054;-87
2021/12/08 09:17:25;;;;;;;17.10;3.50;;;6.70;99.90;;;;;;5138131;27;20078;-87
2021/12/08 09:19:59;;;;;;;17.20;2.25;;;6.70;99.90;;;;;;5138549;27;20075;-87
2021/12/08 09:22:31;;;;;;;13.80;2.30;;;6.70;99.90;;;;;;5137961;27;20043;-85
2021/12/08 09:25:02;;;;;;;22.40;4.60;;;6.80;99.90;;;;;;5144562;27;20134;-86
2021/12/08 09:27:34;;;;;;;11.88;2.92;;;6.90;99.90;;;;;;5140037;27;20039;-86
2021/12/08 09:30:09;;;;;;;20.40;2.88;;;6.80;99.90;;;;;;5141161;27;20043;-88
2021/12/08 09:32:42;;;;;;;17.05;2.78;;;6.90;99.90;;;;;;5135204;27;20408;-86
2021/12/08 09:35:19;;;;;;;14.38;3.35;;;6.90;99.90;;;;;;5138991;27;20068;-87
2021/12/08 09:37:52;;;;;;;14.10;3.55;;;6.90;99.90;;;;;;5139562;27;20078;-84
2021/12/08 09:40:28;;;;;;;17.65;3.05;;;7.00;99.90;;;;;;5138871;27;20043;-85
2021/12/08 09:49:24;;;;;;;21.23;3.55;;;7.20;99.90;;;;;;5131534;27;20057;-89
2021/12/08 09:52:20;;;;;;;17.70;2.85;;;7.20;99.90;;;;;;5129544;27;20605;-88
2021/12/08 09:54:47;;;;;;;18.48;3.22;;;7.20;99.90;;;;;;5133137;27;20345;-87
2021/12/08 09:57:15;;;;;;;24.23;5.68;;;7.20;99.90;;;;;;5133540;27;20043;-88
2021/12/08 09:59:47;;;;;;;18.15;3.78;;;7.20;99.90;;;;;;5125050;27;20399;-88
2021/12/08 10:02:19;;;;;;;21.02;5.07;;;7.20;99.90;;;;;;5140780;27;20035;-87
2021/12/08 10:04:47;;;;;;;22.65;2.78;;;7.20;99.90;;;;;;5133829;27;20054;-87
2021/12/08 10:07:15;;;;;;;21.60;3.03;;;7.20;99.90;;;;;;5139494;27;20502;-87
2021/12/08 10:09:42;;;;;;;12.10;3.28;;;7.20;99.90;;;;;;5142225;27;20107;-87
2021/12/08 10:12:09;;;;;;;12.07;3.00;;;7.20;99.90;;;;;;5129272;27;20778;-89
2021/12/08 10:14:37;;;;;;;11.68;1.88;;;7.20;99.90;;;;;;5143453;27;20047;-87
2021/12/08 10:17:05;;;;;;;11.20;2.28;;;7.20;99.90;;;;;;5139655;27;20070;-86
2021/12/08 10:19:32;;;;;;;18.48;2.55;;;7.10;99.90;;;;;;5135120;27;20114;-86
2021/12/08 10:22:01;;;;;;;10.38;2.67;;;7.00;99.90;;;;;;5143477;27;20058;-87
2021/12/08 10:24:31;;;;;;;17.83;4.15;;;7.00;99.90;;;;;;5144442;27;20530;-88
2021/12/08 10:27:03;;;;;;;16.40;3.05;;;7.00;99.90;;;;;;5147465;27;20065;-91
2021/12/08 10:29:32;;;;;;;20.92;2.92;;;7.00;99.90;;;;;;5140977;27;20079;-88
2021/12/08 10:32:01;;;;;;;16.52;3.15;;;7.00;99.90;;;;;;5142193;27;20078;-88
2021/12/08 10:34:35;;;;;;;22.70;3.25;;;8.20;99.90;;;;;;5138561;27;20496;-89
2021/12/08 10:37:10;;;;;;;24.25;3.53;;;7.00;99.90;;;;;;5141196;27;20107;-87
2021/12/08 10:39:41;;;;;;;20.05;3.13;;;7.00;99.90;;;;;;5140614;27;20450;-88
2021/12/08 10:42:13;;;;;;;18.55;2.25;;;7.00;99.90;;;;;;5146095;27;20510;-90
2021/12/08 10:44:47;;;;;;;19.98;3.40;;;7.00;99.90;;;;;;5142395;27;20049;-87
2021/12/08 10:47:18;;;;;;;16.77;3.65;;;6.70;99.90;;;;;;5123509;27;20049;-88
2021/12/08 10:55:24;;;;;;;17.60;3.53;;;7.00;99.90;;;;;;5141511;27;20185;-88
2021/12/08 10:57:55;;;;;;;21.35;3.75;;;7.00;99.90;;;;;;5146345;27;20091;-88
2021/12/08 11:00:26;;;;;;;14.95;2.72;;;6.90;99.90;;;;;;5134095;27;20511;-86
2021/12/08 11:02:55;;;;;;;13.23;2.88;;;6.90;99.90;;;;;;5141714;27;20096;-86
2021/12/08 11:05:39;;;;;;;22.95;3.08;;;6.90;99.90;;;;;;5124327;27;20047;-87
2021/12/08 11:08:11;;;;;;;18.08;2.22;;;6.80;99.90;;;;;;5144789;27;20062;-87
2021/12/08 11:10:41;;;;;;;15.35;2.97;;;6.80;99.90;;;;;;5148556;27;20112;-87
2021/12/08 11:13:09;;;;;;;22.73;4.40;;;6.00;99.90;;;;;;5141453;27;20119;-86
2021/12/08 11:15:39;;;;;;;18.10;2.63;;;6.70;99.90;;;;;;5141594;27;20111;-88
2021/12/08 11:18:12;;;;;;;18.63;2.65;;;6.70;99.90;;;;;;5140435;27;20405;-86
2021/12/08 11:20:49;;;;;;;19.00;2.85;;;6.90;99.90;;;;;;5141804;27;20047;-88
2021/12/08 11:23:29;;;;;;;15.85;3.25;;;6.80;99.90;;;;;;5144047;27;20512;-86
2021/12/08 11:25:56;;;;;;;;;;;6.80;99.90;;;;;;5139848;27;20079;-88
2021/12/08 11:28:33;;;;;;;17.67;3.13;;;6.80;99.90;;;;;;5141608;27;20409;-88
2021/12/08 11:31:06;;;;;;;17.42;2.70;;;6.70;99.90;;;;;;5138782;27;20035;-88
2021/12/08 11:33:36;;;;;;;15.52;2.35;;;6.80;99.90;;;;;;5143546;27;20492;-87
2021/12/08 11:36:19;;;;;;;23.52;3.33;;;6.80;99.90;;;;;;5140851;27;20294;-87
2021/12/08 11:38:51;;;;;;;11.90;2.92;;;7.00;99.90;;;;;;5151050;27;20047;-87
2021/12/08 11:41:34;;;;;;;10.32;2.22;;;6.90;99.90;;;;;;5146901;27;20039;-87
2021/12/08 11:44:03;;;;;;;21.52;2.85;;;6.80;99.90;;;;;;5138017;27;20046;-88
2021/12/08 11:46:33;;;;;;;13.20;2.58;;;6.90;99.90;;;;;;5143355;27;20047;-87
2021/12/08 11:49:07;;;;;;;16.40;3.05;;;6.90;99.90;;;;;;5137827;27;20041;-88
2021/12/08 11:51:54;;;;;;;17.77;3.53;;;7.00;99.90;;;;;;5143311;27;20043;-86
2021/12/08 11:54:37;;;;;;;21.80;4.30;;;7.00;99.90;;;;;;5140128;27;20039;-87
2021/12/08 11:57:11;;;;;;;16.30;2.65;;;7.00;99.90;;;;;;5140249;27;20058;-88
2021/12/08 12:00:09;;;;;;;31.48;4.97;;;6.90;99.90;;;;;;5140422;27;20071;-87
2021/12/08 12:02:40;;;;;;;14.50;2.93;;;6.90;99.90;;;;;;5095192;27;20646;-87
2021/12/08 12:05:09;;;;;;;17.75;2.67;;;6.90;99.90;;;;;;5139227;27;20049;-89
2021/12/08 12:07:38;;;;;;;22.17;4.47;;;6.90;99.90;;;;;;5124485;27;20046;-87
2021/12/08 12:10:08;;;;;;;15.38;2.97;;;6.90;99.90;;;;;;5147420;27;20506;-85
2021/12/08 12:12:37;;;;;;;15.70;2.78;;;6.90;99.90;;;;;;5142142;27;20135;-88
2021/12/08 12:15:05;;;;;;;14.70;3.10;;;6.90;99.90;;;;;;5139814;27;20053;-86
2021/12/08 12:17:32;;;;;;;19.92;2.88;;;6.90;99.90;;;;;;5140562;27;20082;-85
2021/12/08 12:20:06;;;;;;;11.00;2.40;;;6.90;99.90;;;;;;5143750;27;20492;-86
2021/12/08 12:23:03;;;;;;;15.82;2.75;;;6.90;99.90;;;;;;5143006;27;20039;-85
2021/12/08 12:25:43;;;;;;;10.18;2.38;;;6.90;99.90;;;;;;5119951;27;20043;-87
2021/12/08 12:28:43;;;;;;;15.35;2.30;;;6.90;99.90;;;;;;5137283;27;20424;-87
2021/12/08 12:31:19;;;;;;;12.93;2.45;;;6.90;99.90;;;;;;5141717;27;20043;-87
2021/12/08 12:33:48;;;;;;;15.80;3.17;;;6.90;99.90;;;;;;5143641;27;20141;-86
2021/12/08 12:36:20;;;;;;;22.42;4.78;;;6.90;99.90;;;;;;5142279;27;20047;-87
2021/12/08 12:38:48;;;;;;;10.82;2.67;;;6.80;99.90;;;;;;5146809;27;20047;-88
2021/12/08 12:41:28;;;;;;;7.75;1.83;;;6.70;99.90;;;;;;5141366;27;20046;-87
2021/12/08 12:44:19;;;;;;;10.57;1.83;;;6.70;99.90;;;;;;5141954;27;20055;-87
2021/12/08 12:47:14;;;;;;;13.07;2.42;;;6.60;99.90;;;;;;5143425;27;20096;-84
2021/12/08 12:49:44;;;;;;;6.88;1.08;;;6.60;99.90;;;;;;5142488;27;20035;-85
2021/12/08 12:52:12;;;;;;;7.55;1.70;;;6.60;99.90;;;;;;5139373;27;20054;-88
2021/12/08 12:54:40;;;;;;;6.38;1.27;;;6.70;99.90;;;;;;5143039;27;20047;-87
2021/12/08 12:57:09;;;;;;;11.57;2.22;;;6.60;99.90;;;;;;5143927;27;20095;-85
2021/12/08 12:59:41;;;;;;;6.60;1.35;;;6.60;99.90;;;;;;5144732;27;20079;-84
2021/12/08 13:02:12;;;;;;;5.95;1.23;;;6.60;99.90;;;;;;5129483;27;20655;-85
2021/12/08 13:04:55;;;;;;;6.07;1.08;;;6.50;99.90;;;;;;5140268;27;20134;-85
2021/12/08 13:07:22;;;;;;;8.65;1.60;;;6.50;99.90;;;;;;5157642;27;20480;-85
2021/12/08 13:09:51;;;;;;;5.97;1.13;;;6.50;99.90;;;;;;5157523;27;20385;-85
2021/12/08 13:12:21;;;;;;;;;;;6.50;99.90;;;;;;5156344;27;20043;-86
2021/12/08 13:15:05;;;;;;;7.47;2.08;;;6.50;99.90;;;;;;5154436;27;19979;-86
2021/12/08 13:17:32;;;;;;;6.75;0.82;;;6.40;99.90;;;;;;5154684;27;20049;-85
2021/12/08 13:20:01;;;;;;;8.40;1.10;;;6.30;99.90;;;;;;5153729;27;20402;-85
2021/12/08 13:22:52;;;;;;;2.30;0.75;;;6.30;99.90;;;;;;5154939;27;20038;-83
2021/12/08 13:25:39;;;;;;;3.38;0.80;;;6.30;99.90;;;;;;5153517;27;20049;-85
2021/12/08 13:28:16;;;;;;;3.05;1.00;;;6.30;99.90;;;;;;5154278;27;20437;-86
2021/12/08 13:30:49;;;;;;;9.20;1.65;;;6.30;99.90;;;;;;5154527;27;20057;-84
2021/12/08 13:33:29;;;;;;;2.72;1.08;;;6.30;99.90;;;;;;5150127;27;20046;-86
2021/12/08 13:35:59;;;;;;;7.88;1.25;;;6.30;99.90;;;;;;5070573;27;20055;-85
2021/12/08 13:38:27;;;;;;;4.88;1.00;;;6.20;99.90;;;;;;5076375;27;20050;-85
2021/12/08 13:40:57;;;;;;;2.78;0.63;;;6.20;99.90;;;;;;5059141;27;20527;-85
2021/12/08 13:43:37;;;;;;;6.80;0.93;;;6.30;99.90;;;;;;5073071;27;20113;-85
2021/12/08 13:46:06;;;;;;;8.05;1.33;;;6.20;99.90;;;;;;5090421;27;20100;-85
2021/12/08 13:48:33;;;;;;;5.05;0.80;;;6.30;99.90;;;;;;5079076;27;20067;-86
2021/12/08 13:51:20;;;;;;;4.28;0.90;;;6.40;99.90;;;;;;5078987;27;20124;-86